Time;durP1;ratioP1;P1;durP2;ratioP2;P2;SDS_P1;SDS_P2;PMS_P1;PMS_P2;Temp;Humidity;BMP_temperature;BMP_pressure;BME280_temperature;BME280_humidity;BME280_pressure;Samples;Min_cycle;Max_cycle;Signal;HPM_P1;HPM_P2
2023/10/13 00:02:11;;;;;;;17.45;6.30;;;14.70;99.90;;;;;;4991322;28;20113;-83
2023/10/13 00:04:37;;;;;;;13.07;6.07;;;14.60;99.90;;;;;;4999820;28;20929;-83
2023/10/13 00:07:04;;;;;;;12.18;6.20;;;14.60;99.90;;;;;;5001722;28;20025;-83
2023/10/13 00:09:36;;;;;;;8.98;5.88;;;14.60;99.90;;;;;;5000424;28;20022;-82
2023/10/13 00:12:03;;;;;;;26.85;6.18;;;14.50;99.90;;;;;;4997219;28;20034;-83
2023/10/13 00:14:33;;;;;;;11.95;6.53;;;14.50;99.90;;;;;;4983525;28;20026;-83
2023/10/13 00:17:10;;;;;;;12.00;6.05;;;14.40;99.90;;;;;;4989780;28;20046;-83
2023/10/13 00:19:38;;;;;;;10.45;5.93;;;14.50;99.90;;;;;;4995050;28;20026;-83
2023/10/13 00:22:11;;;;;;;10.75;5.85;;;14.50;99.90;;;;;;4999502;28;20025;-83
2023/10/13 00:24:50;;;;;;;13.82;5.63;;;14.40;99.90;;;;;;4993705;28;20356;-83
2023/10/13 00:27:29;;;;;;;11.80;6.15;;;14.40;99.90;;;;;;4998785;28;20106;-84
2023/10/13 00:30:22;;;;;;;17.52;6.55;;;14.40;99.90;;;;;;4993014;28;20042;-83
2023/10/13 00:32:55;;;;;;;13.85;6.15;;;14.40;99.90;;;;;;4993343;28;20029;-84
2023/10/13 00:35:36;;;;;;;9.35;5.15;;;14.50;99.90;;;;;;5002044;28;20472;-84
2023/10/13 00:38:13;;;;;;;12.93;5.68;;;14.60;99.90;;;;;;4989612;28;20038;-84
2023/10/13 00:40:41;;;;;;;8.80;5.47;;;14.70;99.90;;;;;;4990807;28;20034;-83
2023/10/13 00:46:06;;;;;;;10.35;5.32;;;14.90;99.90;;;;;;4997282;28;20033;-84
2023/10/13 00:48:51;;;;;;;11.40;5.65;;;15.10;99.90;;;;;;4990914;28;20393;-88
2023/10/13 00:51:32;;;;;;;12.70;5.43;;;15.10;99.90;;;;;;4990317;28;20052;-87
2023/10/13 00:54:02;;;;;;;11.30;5.18;;;15.20;99.90;;;;;;5013830;28;20468;-84
2023/10/13 00:56:29;;;;;;;9.25;5.28;;;15.30;99.90;;;;;;5002254;28;20014;-85
2023/10/13 00:58:57;;;;;;;11.30;5.88;;;15.30;99.90;;;;;;4997210;28;20054;-85
2023/10/13 01:01:29;;;;;;;14.05;5.72;;;15.30;99.90;;;;;;4996261;28;20040;-88
2023/10/13 01:04:00;;;;;;;15.18;5.60;;;15.40;99.90;;;;;;4990401;28;20038;-87
2023/10/13 01:06:28;;;;;;;9.70;4.35;;;15.40;99.90;;;;;;4998795;28;20022;-87
2023/10/13 01:09:13;;;;;;;8.15;4.78;;;15.50;99.90;;;;;;4997548;28;20025;-83
2023/10/13 01:11:44;;;;;;;15.05;5.00;;;15.50;99.90;;;;;;4993259;28;20120;-86
2023/10/13 01:14:17;;;;;;;7.97;4.53;;;15.60;99.90;;;;;;4992345;28;20038;-86
2023/10/13 01:16:44;;;;;;;8.48;4.97;;;15.60;99.90;;;;;;4999243;28;20444;-83
2023/10/13 01:19:12;;;;;;;8.52;4.40;;;15.50;99.90;;;;;;5001918;28;20026;-88
2023/10/13 01:21:40;;;;;;;13.60;5.32;;;15.60;99.90;;;;;;4998696;28;20018;-85
2023/10/13 01:24:07;;;;;;;11.73;4.95;;;15.60;99.90;;;;;;4997623;28;20034;-87
2023/10/13 01:26:38;;;;;;;11.18;5.55;;;15.60;99.90;;;;;;4990730;28;20026;-87
2023/10/13 01:29:14;;;;;;;9.90;4.70;;;15.60;99.90;;;;;;4990655;28;20594;-87
2023/10/13 01:31:47;;;;;;;17.30;5.63;;;15.70;99.90;;;;;;4998668;28;20030;-84
2023/10/13 01:34:19;;;;;;;7.05;3.88;;;15.70;99.90;;;;;;4999447;28;20042;-84
2023/10/13 01:36:45;;;;;;;13.38;4.70;;;15.60;99.90;;;;;;4994898;28;20423;-84
2023/10/13 01:39:11;;;;;;;10.48;4.57;;;15.70;99.90;;;;;;4999126;28;20021;-85
2023/10/13 01:41:39;;;;;;;9.27;4.30;;;15.70;99.90;;;;;;5000089;28;20018;-84
2023/10/13 01:44:05;;;;;;;9.63;4.07;;;15.60;99.90;;;;;;4991424;28;20485;-82
2023/10/13 01:46:30;;;;;;;6.85;3.95;;;15.60;99.90;;;;;;4996610;28;20102;-83
2023/10/13 01:48:58;;;;;;;12.10;5.25;;;15.60;99.90;;;;;;4999236;28;20032;-85
2023/10/13 01:51:28;;;;;;;15.20;4.95;;;15.60;99.90;;;;;;4992278;28;20025;-84
2023/10/13 01:53:56;;;;;;;7.93;4.03;;;15.60;99.90;;;;;;5002729;28;20033;-84
2023/10/13 01:56:23;;;;;;;8.10;4.13;;;15.60;99.90;;;;;;4999354;28;20495;-84
2023/10/13 01:58:49;;;;;;;9.55;4.93;;;15.60;99.90;;;;;;4996752;28;20101;-84
2023/10/13 02:01:26;;;;;;;10.80;4.75;;;15.60;99.90;;;;;;4990585;28;20029;-83
2023/10/13 02:04:02;;;;;;;12.35;4.20;;;15.60;99.90;;;;;;4992245;28;20438;-83
2023/10/13 02:06:32;;;;;;;10.18;4.30;;;15.60;99.90;;;;;;4993618;28;20024;-84
2023/10/13 02:09:10;;;;;;;11.40;4.15;;;15.60;99.90;;;;;;4998169;28;20028;-87
2023/10/13 02:11:38;;;;;;;9.32;4.88;;;15.60;99.90;;;;;;4993934;28;20075;-84
2023/10/13 02:14:04;;;;;;;11.88;5.03;;;15.60;99.90;;;;;;4993029;28;20038;-83
2023/10/13 02:16:30;;;;;;;6.35;4.78;;;15.60;99.90;;;;;;4993384;28;20046;-86
2023/10/13 02:19:03;;;;;;;8.73;5.05;;;15.60;99.90;;;;;;4998913;28;20022;-84
2023/10/13 02:21:39;;;;;;;9.82;4.07;;;15.50;99.90;;;;;;4996135;28;20358;-83
2023/10/13 02:24:18;;;;;;;11.90;4.55;;;15.50;99.90;;;;;;4997497;28;20038;-83
2023/10/13 02:26:44;;;;;;;6.25;3.88;;;15.50;99.90;;;;;;4998999;28;20028;-83
2023/10/13 02:29:13;;;;;;;6.45;4.35;;;15.50;99.90;;;;;;4996223;28;20034;-83
2023/10/13 02:31:42;;;;;;;14.07;5.28;;;15.40;99.90;;;;;;4997451;28;20018;-83
2023/10/13 02:34:08;;;;;;;7.25;3.92;;;15.40;99.90;;;;;;4990515;28;20030;-83
2023/10/13 02:36:46;;;;;;;6.97;4.10;;;15.30;99.90;;;;;;4998091;28;20045;-84
2023/10/13 02:39:13;;;;;;;5.63;4.03;;;15.30;99.90;;;;;;4999731;28;20022;-83
2023/10/13 02:41:47;;;;;;;9.73;3.97;;;15.30;99.90;;;;;;4992511;28;20041;-84
2023/10/13 02:44:20;;;;;;;5.88;3.88;;;15.20;99.90;;;;;;4996278;28;20826;-83
2023/10/13 02:46:50;;;;;;;7.20;4.85;;;15.10;99.90;;;;;;4987866;28;20117;-83
2023/10/13 02:49:19;;;;;;;6.72;4.80;;;15.10;99.90;;;;;;4995389;28;20022;-83
2023/10/13 02:51:45;;;;;;;9.65;4.05;;;15.10;99.90;;;;;;4991455;28;20076;-83
2023/10/13 02:54:18;;;;;;;11.70;4.55;;;15.00;99.90;;;;;;4986505;28;20702;-85
2023/10/13 02:56:56;;;;;;;10.43;5.38;;;15.00;99.90;;;;;;4991326;28;20057;-83
2023/10/13 02:59:46;;;;;;;13.18;6.28;;;15.00;99.90;;;;;;4994524;28;20044;-83
2023/10/13 03:02:17;;;;;;;6.30;4.55;;;15.00;99.90;;;;;;4998737;28;20022;-83
2023/10/13 03:04:59;;;;;;;8.57;4.95;;;15.00;99.90;;;;;;4998967;28;20526;-82
2023/10/13 03:07:30;;;;;;;8.88;4.50;;;15.00;99.90;;;;;;4987507;28;20022;-83
2023/10/13 03:09:59;;;;;;;6.70;4.07;;;15.00;99.90;;;;;;4996334;28;20097;-83
2023/10/13 03:12:26;;;;;;;8.55;4.97;;;15.00;99.90;;;;;;4998184;28;20481;-83
2023/10/13 03:15:12;;;;;;;9.00;5.13;;;14.90;99.90;;;;;;4999084;28;20401;-83
2023/10/13 03:17:43;;;;;;;11.85;5.35;;;15.00;99.90;;;;;;4995990;28;20036;-84
2023/10/13 03:20:14;;;;;;;9.75;5.72;;;14.90;99.90;;;;;;4995787;28;20034;-83
2023/10/13 03:22:39;;;;;;;7.22;4.47;;;14.90;99.90;;;;;;4999354;28;20069;-83
2023/10/13 03:25:08;;;;;;;5.70;5.03;;;14.90;99.90;;;;;;4995736;28;20462;-83
2023/10/13 03:30:15;;;;;;;10.77;6.03;;;14.90;99.90;;;;;;4992046;28;20060;-86
2023/10/13 03:32:48;;;;;;;11.55;6.13;;;14.90;99.90;;;;;;4990887;28;20072;-83
2023/10/13 03:35:23;;;;;;;7.57;5.28;;;14.80;99.90;;;;;;4991076;28;20038;-83
2023/10/13 03:37:49;;;;;;;;;;;14.80;99.90;;;;;;4997201;28;20022;-83
2023/10/13 03:43:04;;;;;;;7.75;5.18;;;14.80;99.90;;;;;;4995264;28;20444;-82
2023/10/13 03:45:42;;;;;;;9.40;5.03;;;14.70;99.90;;;;;;4993163;28;20025;-83
2023/10/13 03:48:11;;;;;;;12.63;6.40;;;14.70;99.90;;;;;;4996531;28;20527;-83
2023/10/13 03:50:48;;;;;;;7.07;5.10;;;14.60;99.90;;;;;;4994650;28;20049;-82
2023/10/13 03:53:14;;;;;;;13.20;5.57;;;14.60;99.90;;;;;;4998706;28;20030;-83
2023/10/13 03:55:40;;;;;;;10.38;6.70;;;14.60;99.90;;;;;;4992421;28;20048;-83
2023/10/13 03:58:10;;;;;;;17.15;7.05;;;14.60;99.90;;;;;;4995783;28;20350;-82
2023/10/13 04:00:42;;;;;;;14.82;5.78;;;14.60;99.90;;;;;;4994467;28;20060;-82
2023/10/13 04:03:09;;;;;;;8.07;5.72;;;14.60;99.90;;;;;;5001015;28;20035;-82
2023/10/13 04:05:42;;;;;;;10.30;6.03;;;14.60;99.90;;;;;;4997229;28;20026;-84
2023/10/13 04:21:39;;;;;;;12.45;7.90;;;14.80;99.90;;;;;;4991584;28;20046;-83
2023/10/13 04:32:38;;;;;;;11.18;7.00;;;15.00;99.90;;;;;;4992516;28;20023;-83
2023/10/13 04:37:52;;;;;;;9.63;6.68;;;15.00;99.90;;;;;;4997043;28;20034;-83
2023/10/13 04:40:28;;;;;;;15.38;7.72;;;15.00;99.90;;;;;;4996587;28;20033;-82
2023/10/13 04:42:56;;;;;;;15.95;7.63;;;15.00;99.90;;;;;;4997638;28;20038;-83
2023/10/13 04:50:46;;;;;;;;;;;15.10;99.90;;;;;;4990593;28;20029;-82
2023/10/13 04:53:33;;;;;;;20.77;8.43;;;15.20;99.90;;;;;;4992045;28;19905;-83
2023/10/13 04:56:52;;;;;;;22.73;9.48;;;15.40;99.90;;;;;;4997488;28;20515;-84
2023/10/13 05:04:57;;;;;;;16.92;7.30;;;15.90;99.90;;;;;;4969210;28;20399;-85
2023/10/13 05:49:09;;;;;;;17.67;8.88;;;16.30;99.90;;;;;;4991994;28;20026;-84
2023/10/13 05:51:32;;;;;;;22.58;9.27;;;16.40;99.90;;;;;;4991683;28;20417;-82
2023/10/13 06:29:53;;;;;;;30.85;11.02;;;16.60;99.90;;;;;;5003649;28;20083;-84
2023/10/13 06:32:19;;;;;;;20.60;9.23;;;16.60;99.90;;;;;;4993952;28;20035;-84
2023/10/13 06:34:45;;;;;;;23.73;10.38;;;16.60;99.90;;;;;;4993971;28;20038;-85
2023/10/13 06:37:31;;;;;;;20.23;10.20;;;16.60;99.90;;;;;;5001774;28;20026;-83
2023/10/13 06:40:05;;;;;;;19.45;9.93;;;16.70;99.90;;;;;;4983720;28;20034;-85
2023/10/13 06:42:34;;;;;;;15.07;8.98;;;16.70;99.90;;;;;;4982654;28;20030;-81
2023/10/13 06:45:08;;;;;;;17.73;10.00;;;16.70;99.90;;;;;;4991272;28;20026;-82
2023/10/13 06:47:39;;;;;;;21.27;11.13;;;16.70;99.90;;;;;;4989579;28;20038;-86
2023/10/13 06:50:15;;;;;;;24.48;10.45;;;16.70;99.90;;;;;;4992647;28;20060;-84
2023/10/13 06:52:44;;;;;;;20.60;11.80;;;16.70;99.90;;;;;;4995327;28;20486;-86
2023/10/13 06:55:16;;;;;;;24.17;12.40;;;16.70;99.90;;;;;;4993416;28;20504;-86
2023/10/13 06:57:46;;;;;;;17.55;10.75;;;16.70;99.90;;;;;;4995423;28;20033;-86
2023/10/13 07:00:29;;;;;;;25.75;11.05;;;16.80;99.90;;;;;;4999435;28;20034;-84
2023/10/13 07:05:43;;;;;;;21.70;10.82;;;16.90;99.90;;;;;;4999840;28;20053;-86
2023/10/13 07:08:14;;;;;;;27.13;10.25;;;17.00;99.90;;;;;;4994895;28;20022;-87
2023/10/13 07:10:51;;;;;;;25.20;10.93;;;16.90;99.90;;;;;;4994084;28;20373;-82
2023/10/13 07:13:19;;;;;;;31.73;10.95;;;17.00;99.90;;;;;;4997873;28;20291;-84
2023/10/13 07:15:45;;;;;;;27.90;10.50;;;17.00;99.90;;;;;;4995585;28;20127;-84
2023/10/13 07:18:17;;;;;;;25.33;10.13;;;17.00;99.90;;;;;;4995957;28;20048;-85
2023/10/13 07:20:46;;;;;;;17.45;10.07;;;17.00;99.90;;;;;;4999437;28;20084;-83
2023/10/13 07:23:17;;;;;;;20.90;11.13;;;17.00;99.90;;;;;;4999131;28;20122;-81
2023/10/13 07:25:55;;;;;;;18.58;9.38;;;17.00;99.90;;;;;;4989681;28;20021;-86
2023/10/13 07:28:21;;;;;;;20.70;8.68;;;17.00;99.90;;;;;;5001698;28;20109;-82
2023/10/13 07:33:19;;;;;;;23.85;10.57;;;17.00;99.90;;;;;;4997335;28;20025;-86
2023/10/13 07:35:58;;;;;;;23.98;10.38;;;17.10;99.90;;;;;;4995624;28;20034;-83
2023/10/13 07:38:25;;;;;;;19.75;8.90;;;17.10;99.90;;;;;;4998439;28;20466;-82
2023/10/13 07:40:51;;;;;;;16.98;9.40;;;17.20;99.90;;;;;;5001725;28;20382;-83
2023/10/13 07:43:22;;;;;;;21.10;10.25;;;17.20;99.90;;;;;;4997958;28;20251;-79
2023/10/13 07:45:51;;;;;;;16.75;9.50;;;17.20;99.90;;;;;;4997749;28;20054;-83
2023/10/13 07:48:21;;;;;;;29.05;10.15;;;17.20;99.90;;;;;;4997846;28;20018;-79
2023/10/13 07:51:15;;;;;;;20.90;9.50;;;17.30;99.90;;;;;;4990687;28;20172;-83
2023/10/13 07:53:43;;;;;;;17.42;8.50;;;17.50;99.90;;;;;;4994572;28;20029;-86
2023/10/13 07:56:11;;;;;;;25.55;9.05;;;17.50;99.90;;;;;;4986489;28;20065;-82
2023/10/13 07:58:52;;;;;;;25.33;9.15;;;17.50;99.90;;;;;;4998466;28;20530;-85
2023/10/13 08:01:21;;;;;;;34.83;9.65;;;17.60;99.90;;;;;;4992295;28;20067;-85
2023/10/13 08:03:56;;;;;;;30.05;9.05;;;17.60;99.90;;;;;;4992048;28;20042;-84
2023/10/13 08:06:26;;;;;;;22.25;8.52;;;17.60;99.90;;;;;;4994775;28;20045;-84
2023/10/13 08:09:08;;;;;;;28.83;9.32;;;17.70;99.90;;;;;;4991547;28;20062;-81
2023/10/13 08:11:38;;;;;;;21.40;7.97;;;17.70;99.90;;;;;;4997179;28;20018;-88
2023/10/13 08:14:11;;;;;;;24.25;8.77;;;17.70;99.90;;;;;;4998297;28;20314;-85
2023/10/13 08:19:16;;;;;;;25.33;7.75;;;17.70;99.90;;;;;;4998018;28;20390;-85
2023/10/13 08:21:54;;;;;;;22.17;7.13;;;17.70;99.90;;;;;;4996968;28;20512;-84
2023/10/13 08:32:36;;;;;;;;;;;17.80;99.90;;;;;;5002865;28;20444;-85
2023/10/13 08:37:35;;;;;;;14.55;6.32;;;17.90;99.90;;;;;;4998688;28;20029;-86
2023/10/13 08:50:48;;;;;;;25.35;8.52;;;18.10;99.90;;;;;;4997616;28;20049;-82
2023/10/13 09:04:21;;;;;;;7.13;4.03;;;18.20;99.90;;;;;;5014644;28;20048;-87
2023/10/13 09:09:41;;;;;;;14.05;5.25;;;18.10;99.90;;;;;;4999096;28;20516;-82
2023/10/13 09:15:17;;;;;;;10.82;4.90;;;18.20;99.90;;;;;;4999536;28;20070;-81
2023/10/13 09:17:51;;;;;;;12.20;5.47;;;18.10;99.90;;;;;;5004404;28;20032;-87
2023/10/13 09:23:12;;;;;;;14.05;5.32;;;18.00;99.90;;;;;;4986572;28;20034;-82
2023/10/13 09:25:57;;;;;;;12.13;5.75;;;18.10;99.90;;;;;;4993402;28;20038;-85
2023/10/13 09:28:25;;;;;;;17.10;6.00;;;18.10;99.90;;;;;;4988533;28;20022;-87
2023/10/13 09:30:53;;;;;;;18.02;6.05;;;18.10;99.90;;;;;;4991757;28;20367;-86
2023/10/13 09:33:50;;;;;;;18.42;6.82;;;18.20;99.90;;;;;;4997852;28;20022;-82
2023/10/13 09:36:17;;;;;;;22.75;6.88;;;18.30;99.90;;;;;;4992260;28;20043;-84
2023/10/13 09:39:10;;;;;;;21.85;7.32;;;18.30;99.90;;;;;;4991599;28;20065;-83
2023/10/13 09:41:37;;;;;;;13.68;5.50;;;18.30;99.90;;;;;;4995303;28;20034;-84
2023/10/13 09:44:03;;;;;;;23.20;6.20;;;18.40;99.90;;;;;;4997648;28;20109;-84
2023/10/13 09:46:30;;;;;;;16.83;5.45;;;18.40;99.90;;;;;;4994226;28;20109;-82
2023/10/13 09:49:07;;;;;;;15.00;6.32;;;18.40;99.90;;;;;;5007577;28;20037;-84
2023/10/13 09:51:33;;;;;;;13.40;5.72;;;18.50;99.90;;;;;;4991072;28;20906;-89
2023/10/13 09:54:26;;;;;;;13.32;5.97;;;18.50;99.90;;;;;;5000761;28;20049;-87
2023/10/13 09:56:57;;;;;;;14.20;5.47;;;18.40;99.90;;;;;;4987224;28;20288;-86
2023/10/13 09:59:36;;;;;;;18.42;6.55;;;18.40;99.90;;;;;;4994350;28;20386;-85
2023/10/13 10:02:08;;;;;;;20.15;5.75;;;18.40;99.90;;;;;;4997604;28;20246;-84
2023/10/13 10:04:44;;;;;;;18.67;6.22;;;18.40;99.90;;;;;;5001298;28;20029;-82
2023/10/13 10:07:10;;;;;;;15.30;5.80;;;18.40;99.90;;;;;;5002100;28;20478;-83
2023/10/13 10:09:37;;;;;;;16.48;6.38;;;18.40;99.90;;;;;;4995366;28;20029;-85
2023/10/13 10:12:35;;;;;;;21.23;6.28;;;18.50;99.90;;;;;;4993965;28;20034;-86
2023/10/13 10:15:33;;;;;;;20.00;6.03;;;18.50;99.90;;;;;;4998640;28;20042;-84
2023/10/13 10:18:00;;;;;;;28.17;7.40;;;18.50;99.90;;;;;;4991721;28;20408;-86
2023/10/13 10:20:41;;;;;;;22.15;7.00;;;18.60;99.90;;;;;;4998399;28;20030;-87
2023/10/13 10:23:21;;;;;;;17.08;6.22;;;18.60;99.90;;;;;;4998394;28;20029;-87
2023/10/13 10:25:48;;;;;;;24.15;5.88;;;18.60;99.90;;;;;;4999620;28;20026;-86
2023/10/13 10:28:16;;;;;;;26.27;7.25;;;18.70;99.90;;;;;;4998548;28;20068;-82
2023/10/13 10:30:43;;;;;;;19.95;6.03;;;18.70;99.90;;;;;;4992983;28;20044;-84
2023/10/13 10:33:15;;;;;;;38.85;6.53;;;18.80;99.90;;;;;;4999818;28;20321;-84
2023/10/13 10:35:45;;;;;;;19.30;6.38;;;18.80;99.90;;;;;;4997377;28;20435;-84
2023/10/13 10:41:05;;;;;;;22.23;6.20;;;18.90;99.90;;;;;;5001220;28;20470;-83
2023/10/13 10:43:51;;;;;;;22.85;7.13;;;19.00;99.90;;;;;;4993678;28;20717;-81
2023/10/13 10:46:42;;;;;;;28.95;6.45;;;19.10;99.90;;;;;;4993540;28;20072;-87
2023/10/13 10:49:08;;;;;;;24.70;7.00;;;19.20;99.90;;;;;;4998068;28;20022;-84
2023/10/13 10:51:43;;;;;;;19.77;7.13;;;19.20;99.90;;;;;;4993866;28;20470;-85
2023/10/13 10:54:18;;;;;;;18.75;6.40;;;19.20;99.90;;;;;;4998291;28;20375;-84
2023/10/13 10:56:52;;;;;;;29.55;6.63;;;19.20;99.90;;;;;;5000532;28;20026;-85
2023/10/13 10:59:19;;;;;;;27.92;6.60;;;19.20;99.90;;;;;;4991163;28;20033;-84
2023/10/13 11:01:51;;;;;;;18.60;5.72;;;19.30;99.90;;;;;;4997333;28;20347;-87
2023/10/13 11:06:57;;;;;;;23.40;6.28;;;19.40;99.90;;;;;;5000015;28;20021;-86
2023/10/13 11:12:14;;;;;;;16.60;6.38;;;19.30;99.90;;;;;;4999643;28;20026;-83
2023/10/13 11:14:40;;;;;;;25.15;6.07;;;19.30;99.90;;;;;;4992272;28;20049;-82
2023/10/13 11:17:19;;;;;;;30.83;7.28;;;19.40;99.90;;;;;;4994191;28;20026;-84
2023/10/13 11:19:45;;;;;;;23.42;7.57;;;19.50;99.90;;;;;;4991011;28;20030;-84
2023/10/13 11:22:36;;;;;;;19.27;6.35;;;19.50;99.90;;;;;;4999785;28;20366;-83
2023/10/13 11:25:09;;;;;;;22.42;6.35;;;19.60;99.90;;;;;;4998083;28;20033;-82
2023/10/13 11:30:20;;;;;;;25.77;6.43;;;19.80;99.90;;;;;;4994595;28;20037;-84
2023/10/13 11:32:56;;;;;;;;;;;20.00;99.90;;;;;;4993985;28;20033;-82
2023/10/13 11:35:23;;;;;;;20.73;5.57;;;20.20;99.90;;;;;;4992287;28;20033;-84
2023/10/13 11:38:12;;;;;;;27.27;6.55;;;20.40;99.90;;;;;;4989914;28;20034;-86
2023/10/13 11:40:59;;;;;;;21.35;5.97;;;20.40;99.90;;;;;;4997736;28;20030;-86
2023/10/13 11:43:26;;;;;;;23.17;7.43;;;20.60;99.90;;;;;;4992461;28;20056;-85
2023/10/13 11:46:55;;;;;;;27.38;7.05;;;20.70;99.90;;;;;;4999236;28;20161;-87
2023/10/13 11:48:46;;;;;;;21.73;7.28;;;20.70;99.90;;;;;;5007396;28;20036;-89
2023/10/13 11:51:31;;;;;;;19.80;6.57;;;20.70;99.90;;;;;;4998826;28;20029;-82
2023/10/13 11:53:58;;;;;;;22.08;6.15;;;20.70;99.90;;;;;;4989678;28;20025;-87
2023/10/13 11:56:24;;;;;;;19.25;6.70;;;20.70;99.90;;;;;;4995576;28;20041;-89
2023/10/13 11:58:50;;;;;;;24.90;7.03;;;20.70;99.90;;;;;;4995221;28;20056;-87
2023/10/13 12:11:45;;;;;;;17.00;6.18;;;20.60;99.90;;;;;;4992149;28;20058;-85
2023/10/13 12:14:27;;;;;;;26.45;6.65;;;20.70;99.90;;;;;;4993128;28;20026;-86
2023/10/13 12:16:53;;;;;;;32.13;7.07;;;20.70;99.90;;;;;;4998840;28;20046;-88
2023/10/13 12:19:28;;;;;;;20.70;6.85;;;20.80;99.90;;;;;;5002081;28;20033;-88
2023/10/13 12:21:55;;;;;;;;;;;20.90;99.90;;;;;;4996712;28;20044;-84
2023/10/13 12:27:18;;;;;;;24.60;6.68;;;21.20;99.90;;;;;;5001719;28;20049;-85
2023/10/13 12:29:48;;;;;;;21.42;6.80;;;21.20;99.90;;;;;;4994727;28;20036;-87
2023/10/13 12:32:14;;;;;;;27.00;6.15;;;21.20;99.90;;;;;;4992685;28;20061;-93
2023/10/13 12:53:55;;;;;;;20.35;6.80;;;21.40;99.90;;;;;;4994373;28;20033;-86
2023/10/13 12:56:28;;;;;;;17.13;6.72;;;21.40;99.90;;;;;;4997508;28;20094;-86
2023/10/13 12:58:54;;;;;;;27.05;7.70;;;21.40;99.90;;;;;;4994505;28;20034;-91
2023/10/13 13:01:25;;;;;;;19.23;7.75;;;21.40;99.90;;;;;;4997702;28;20437;-85
2023/10/13 13:03:55;;;;;;;17.85;7.00;;;21.50;99.90;;;;;;4997009;28;20021;-84
2023/10/13 13:06:29;;;;;;;21.38;6.78;;;21.40;99.90;;;;;;4994209;28;20094;-81
2023/10/13 13:08:57;;;;;;;21.20;7.18;;;21.50;99.90;;;;;;4995968;28;20029;-83
2023/10/13 13:11:23;;;;;;;27.95;7.25;;;21.50;99.90;;;;;;4993483;28;20033;-85
2023/10/13 13:13:49;;;;;;;19.33;6.68;;;21.50;99.90;;;;;;4998095;28;20030;-84
2023/10/13 13:16:23;;;;;;;13.55;6.50;;;21.40;99.90;;;;;;4996881;28;20153;-83
2023/10/13 13:18:55;;;;;;;23.67;8.05;;;21.50;99.90;;;;;;4989116;28;20042;-90
2023/10/13 13:21:25;;;;;;;18.80;6.72;;;21.50;99.90;;;;;;4989818;28;20324;-83
2023/10/13 13:23:56;;;;;;;21.75;7.10;;;21.50;99.90;;;;;;4994728;28;20425;-86
2023/10/13 13:26:22;;;;;;;23.17;7.57;;;21.50;99.90;;;;;;4993779;28;20485;-84
2023/10/13 13:28:52;;;;;;;24.63;6.82;;;21.60;99.90;;;;;;4990300;28;20110;-85
2023/10/13 13:31:18;;;;;;;21.15;7.53;;;21.50;99.90;;;;;;4994680;28;20026;-84
2023/10/13 13:33:44;;;;;;;23.58;6.70;;;21.50;99.90;;;;;;4990488;28;20026;-85
2023/10/13 13:36:14;;;;;;;25.50;6.78;;;21.50;99.90;;;;;;4998117;28;20102;-86
2023/10/13 13:38:40;;;;;;;25.38;6.82;;;21.50;99.90;;;;;;4996082;28;20030;-84
2023/10/13 13:41:16;;;;;;;15.82;7.20;;;21.50;99.90;;;;;;4998204;28;20025;-82
2023/10/13 13:43:55;;;;;;;21.98;7.35;;;21.50;99.90;;;;;;4994492;28;20041;-82
2023/10/13 13:46:24;;;;;;;24.52;7.43;;;21.50;99.90;;;;;;4985605;28;20045;-81
2023/10/13 13:48:57;;;;;;;24.58;7.10;;;21.50;99.90;;;;;;4988614;28;20049;-87
2023/10/13 13:51:27;;;;;;;17.92;6.30;;;21.40;99.90;;;;;;4986706;28;20018;-83
2023/10/13 13:53:53;;;;;;;17.55;6.20;;;21.50;99.90;;;;;;4992336;28;20053;-85
2023/10/13 13:56:19;;;;;;;21.23;7.13;;;21.50;99.90;;;;;;4992419;28;20045;-83
2023/10/13 13:58:49;;;;;;;26.48;7.85;;;21.60;99.90;;;;;;4996042;28;20290;-84
2023/10/13 14:01:18;;;;;;;18.23;7.63;;;21.60;99.90;;;;;;4995150;28;20034;-83
2023/10/13 14:03:46;;;;;;;21.20;6.40;;;21.70;99.90;;;;;;4992685;28;20029;-84
2023/10/13 14:06:18;;;;;;;16.52;6.63;;;21.80;99.90;;;;;;4996513;28;20033;-85
2023/10/13 14:08:51;;;;;;;20.33;6.75;;;21.80;99.90;;;;;;4991021;28;20087;-82
2023/10/13 14:11:22;;;;;;;29.00;6.93;;;21.80;99.90;;;;;;4991295;28;20343;-84
2023/10/13 14:13:49;;;;;;;21.35;6.28;;;21.80;99.90;;;;;;4994933;28;20030;-90
2023/10/13 14:16:22;;;;;;;13.52;6.13;;;21.70;99.90;;;;;;4994739;28;20045;-85
2023/10/13 14:18:52;;;;;;;22.63;6.40;;;21.70;99.90;;;;;;4997627;28;20040;-84
2023/10/13 14:21:24;;;;;;;24.25;6.72;;;21.70;99.90;;;;;;4990969;28;20027;-83
2023/10/13 14:23:53;;;;;;;23.23;6.43;;;21.70;99.90;;;;;;4993960;28;20420;-83
2023/10/13 14:26:21;;;;;;;22.48;6.90;;;21.60;99.90;;;;;;4986303;28;20030;-85
2023/10/13 14:29:00;;;;;;;17.38;6.90;;;21.60;99.90;;;;;;4996794;28;20120;-83
2023/10/13 14:31:32;;;;;;;19.10;6.53;;;21.50;99.90;;;;;;4991847;28;20029;-86
2023/10/13 14:33:58;;;;;;;20.30;6.85;;;21.50;99.90;;;;;;4989462;28;20080;-86
2023/10/13 14:36:28;;;;;;;14.70;6.47;;;21.50;99.90;;;;;;4988006;28;20121;-86
2023/10/13 14:38:54;;;;;;;18.70;7.15;;;21.40;99.90;;;;;;4995858;28;20029;-85
2023/10/13 14:41:20;;;;;;;19.75;7.10;;;21.40;99.90;;;;;;4995777;28;20021;-84
2023/10/13 14:43:49;;;;;;;22.55;6.35;;;21.40;99.90;;;;;;4992396;28;20467;-83
2023/10/13 14:46:23;;;;;;;18.13;6.97;;;21.40;99.90;;;;;;4993559;28;20018;-84
2023/10/13 14:48:52;;;;;;;19.95;6.68;;;21.40;99.90;;;;;;4992260;28;20370;-86
2023/10/13 14:51:18;;;;;;;25.75;7.22;;;21.40;99.90;;;;;;4991417;28;20407;-83
2023/10/13 14:53:44;;;;;;;23.25;6.72;;;21.60;99.90;;;;;;4988953;28;20046;-85
2023/10/13 14:56:11;;;;;;;25.85;7.45;;;21.80;99.90;;;;;;4998289;28;20031;-86
2023/10/13 14:58:42;;;;;;;15.63;6.78;;;21.90;99.90;;;;;;4991501;28;21343;-84
2023/10/13 15:01:17;;;;;;;16.40;6.43;;;21.90;99.90;;;;;;4993359;28;20018;-84
2023/10/13 15:03:48;;;;;;;12.88;6.85;;;21.80;99.90;;;;;;4996210;28;20048;-83
2023/10/13 15:06:40;;;;;;;30.13;6.63;;;21.70;99.90;;;;;;4990925;28;20417;-85
2023/10/13 15:09:10;;;;;;;20.05;8.48;;;21.60;99.90;;;;;;4993434;28;20117;-87
2023/10/13 15:11:36;;;;;;;22.00;6.88;;;21.40;99.90;;;;;;4988708;28;20017;-84
2023/10/13 15:14:06;;;;;;;21.15;7.72;;;21.40;99.90;;;;;;4989038;28;20032;-84
2023/10/13 15:16:36;;;;;;;21.92;6.65;;;21.40;99.90;;;;;;4992640;28;20411;-81
2023/10/13 15:19:06;;;;;;;20.52;7.13;;;21.30;99.90;;;;;;4999539;28;20157;-86
2023/10/13 15:21:35;;;;;;;17.27;6.97;;;21.30;99.90;;;;;;4994488;28;20075;-82
2023/10/13 15:24:04;;;;;;;21.90;8.40;;;21.20;99.90;;;;;;4999140;28;20038;-86
2023/10/13 15:26:38;;;;;;;20.80;6.85;;;21.20;99.90;;;;;;4997078;28;20127;-83
2023/10/13 15:29:08;;;;;;;21.40;7.13;;;21.10;99.90;;;;;;4994251;28;20466;-81
2023/10/13 15:34:06;;;;;;;24.85;8.18;;;21.00;99.90;;;;;;5002798;28;20549;-83
2023/10/13 15:36:34;;;;;;;19.20;7.18;;;21.00;99.90;;;;;;4997969;28;20379;-87
2023/10/13 15:39:00;;;;;;;23.80;6.78;;;20.90;99.90;;;;;;4996643;28;20034;-81
2023/10/13 15:41:28;;;;;;;26.88;7.60;;;20.90;99.90;;;;;;4996587;28;20363;-83
2023/10/13 15:43:55;;;;;;;23.63;7.43;;;20.90;99.90;;;;;;4999979;28;20412;-82
2023/10/13 15:46:22;;;;;;;19.33;6.82;;;20.80;99.90;;;;;;4997627;28;20117;-85
2023/10/13 15:48:48;;;;;;;17.92;7.93;;;20.80;99.90;;;;;;4991946;28;20096;-88
2023/10/13 15:51:14;;;;;;;19.98;6.82;;;20.80;99.90;;;;;;4991780;28;20651;-83
2023/10/13 15:53:40;;;;;;;22.77;6.97;;;20.80;99.90;;;;;;4996513;28;20029;-84
2023/10/13 15:56:11;;;;;;;21.13;6.28;;;20.80;99.90;;;;;;4992000;28;20478;-84
2023/10/13 15:58:40;;;;;;;17.48;6.75;;;20.70;99.90;;;;;;4993102;28;20036;-83
2023/10/13 16:01:09;;;;;;;17.67;7.38;;;20.60;99.90;;;;;;4985786;28;20029;-83
2023/10/13 16:03:35;;;;;;;19.85;7.13;;;20.60;99.90;;;;;;4991826;28;20109;-83
2023/10/13 16:06:09;;;;;;;23.75;8.05;;;20.50;99.90;;;;;;4997458;28;20104;-84
2023/10/13 16:08:37;;;;;;;23.42;7.00;;;20.50;99.90;;;;;;4994593;28;20140;-82
2023/10/13 16:11:07;;;;;;;25.92;7.97;;;20.50;99.90;;;;;;4999701;28;20045;-85
2023/10/13 16:13:35;;;;;;;35.25;7.65;;;20.50;99.90;;;;;;4989014;28;20027;-84
2023/10/13 16:16:02;;;;;;;17.52;6.93;;;20.40;99.90;;;;;;4996844;28;20046;-86
2023/10/13 16:18:32;;;;;;;26.02;7.20;;;20.40;99.90;;;;;;5001864;28;20026;-81
2023/10/13 16:20:58;;;;;;;26.77;7.78;;;20.40;99.90;;;;;;5000970;28;20041;-83
2023/10/13 16:23:24;;;;;;;22.15;7.55;;;20.40;99.90;;;;;;4995133;28;20022;-84
2023/10/13 16:25:50;;;;;;;26.00;6.75;;;20.40;99.90;;;;;;4994258;28;20029;-82
2023/10/13 16:28:16;;;;;;;22.58;7.85;;;20.50;99.90;;;;;;4996934;28;20026;-82
2023/10/13 16:30:42;;;;;;;18.55;7.13;;;20.50;99.90;;;;;;5001076;28;20062;-83
2023/10/13 16:33:08;;;;;;;19.23;7.80;;;20.50;99.90;;;;;;4994216;28;20739;-85
2023/10/13 16:35:33;;;;;;;13.35;6.78;;;20.50;99.90;;;;;;4989143;28;20482;-85
2023/10/13 16:38:06;;;;;;;12.68;6.90;;;20.50;99.90;;;;;;4996361;28;20422;-84